KCCO

Details ICAO KCCO (CCO)
Name NEWNAN COWETA CO
Region United States
Timezone America/New_York (UTC-5.0)
Plans Departing 10
Arriving 8
Stats Elevation 970 ft / 296 m (AMSL)
Location 33.311564° -84.769754°
Runways 1
Magnetic Variation 4.814° W
Sunrise 2017-12-11 12:34:17 UTC / 2017-12-11 07:34:17 Local
Sunset 2017-12-11 22:33:30 UTC / 2017-12-11 17:33:30 Local
Advertisement - Login to hide

Runways

ID Width Length Bearing (true) Bearing (mag) Surface Threshold Offset Overrun Length
14 100 ft / 30 m 5,500 ft / 1,676 m 139.63° 144.44° Asphalt 0 ft / 0 m 0 ft / 0 m
32 100 ft / 30 m 5,500 ft / 1,676 m 319.64° 324.45° Asphalt 0 ft / 0 m 0 ft / 0 m

Approach Navaids

Runway Type Ident Frequency Range Bearing (true) Bearing (mag) Slope Elevation
32 Localiser ICCO 110.75 MHz 18 nm / 33 km 319.64° 324.45° - 970 ft / 296 m (AMSL)

Map

Weather


0- 5 10 15 20 25 30 35+ Temperature / ° C

Clouds and Precipitation
Forecast for 2017-12-12 06:00 UTC. Updated a minute ago

Ground ~20,000 ft ~40,000 ft Winds

METAR

KCCO 120315Z AUTO 24006KT 10SM CLR 08/01 A3000 RMK AO2 T00830010

TAF

Not found

Frequencies

Recorded 118.97 MHz AWOS 3
Clearance 119.80 MHz CLNC DEL
Unicom 122.80 MHz CTAF/UNICOM
Approach 119.80 MHz ATLANTA APP/DEP
Warning: Do not use this data for real-world aviation or navigation. No guarantee of current accuracy is given.